sensor_id;sensor_type;location;lat;lon;timestamp;P1;durP1;ratioP1;P2;durP2;ratioP2
11510;SDS011;5812;48.864;9.190;2022-12-07T00:02:01;7.93;;;7.93;;
11510;SDS011;5812;48.864;9.190;2022-12-07T00:04:26;8.17;;;8.17;;
11510;SDS011;5812;48.864;9.190;2022-12-07T00:06:52;8.17;;;8.17;;
11510;SDS011;5812;48.864;9.190;2022-12-07T00:09:18;8.43;;;8.43;;
11510;SDS011;5812;48.864;9.190;2022-12-07T00:11:44;8.77;;;8.77;;
11510;SDS011;5812;48.864;9.190;2022-12-07T00:14:14;8.83;;;8.83;;
11510;SDS011;5812;48.864;9.190;2022-12-07T00:16:41;9.23;;;9.23;;
11510;SDS011;5812;48.864;9.190;2022-12-07T00:19:08;8.33;;;8.33;;
11510;SDS011;5812;48.864;9.190;2022-12-07T00:21:35;9.40;;;9.40;;
11510;SDS011;5812;48.864;9.190;2022-12-07T00:24:01;9.77;;;9.77;;
11510;SDS011;5812;48.864;9.190;2022-12-07T00:26:32;8.17;;;8.17;;
11510;SDS011;5812;48.864;9.190;2022-12-07T00:29:01;9.00;;;9.00;;
11510;SDS011;5812;48.864;9.190;2022-12-07T00:31:31;9.33;;;9.33;;
11510;SDS011;5812;48.864;9.190;2022-12-07T00:33:59;9.57;;;9.57;;
11510;SDS011;5812;48.864;9.190;2022-12-07T00:36:25;10.00;;;10.00;;
11510;SDS011;5812;48.864;9.190;2022-12-07T00:38:51;10.57;;;10.57;;
11510;SDS011;5812;48.864;9.190;2022-12-07T00:41:18;8.90;;;8.90;;
11510;SDS011;5812;48.864;9.190;2022-12-07T00:43:53;8.53;;;8.53;;
11510;SDS011;5812;48.864;9.190;2022-12-07T00:46:19;10.03;;;10.03;;
11510;SDS011;5812;48.864;9.190;2022-12-07T00:48:46;8.77;;;8.77;;
11510;SDS011;5812;48.864;9.190;2022-12-07T00:51:12;9.57;;;9.57;;
11510;SDS011;5812;48.864;9.190;2022-12-07T00:53:39;9.17;;;9.17;;
11510;SDS011;5812;48.864;9.190;2022-12-07T00:56:05;9.30;;;9.30;;
11510;SDS011;5812;48.864;9.190;2022-12-07T00:58:32;9.50;;;9.50;;
11510;SDS011;5812;48.864;9.190;2022-12-07T01:00:59;9.57;;;9.57;;
11510;SDS011;5812;48.864;9.190;2022-12-07T01:03:27;10.00;;;10.00;;
11510;SDS011;5812;48.864;9.190;2022-12-07T01:05:53;10.13;;;10.13;;
11510;SDS011;5812;48.864;9.190;2022-12-07T01:08:20;10.33;;;10.33;;
11510;SDS011;5812;48.864;9.190;2022-12-07T01:10:47;10.20;;;10.20;;
11510;SDS011;5812;48.864;9.190;2022-12-07T01:13:14;10.47;;;10.47;;
11510;SDS011;5812;48.864;9.190;2022-12-07T01:15:40;10.20;;;10.20;;
11510;SDS011;5812;48.864;9.190;2022-12-07T01:18:07;10.43;;;10.43;;
11510;SDS011;5812;48.864;9.190;2022-12-07T01:20:33;10.03;;;10.03;;
11510;SDS011;5812;48.864;9.190;2022-12-07T01:22:58;9.93;;;9.93;;
11510;SDS011;5812;48.864;9.190;2022-12-07T01:25:24;9.10;;;9.10;;
11510;SDS011;5812;48.864;9.190;2022-12-07T01:27:50;9.60;;;9.60;;
11510;SDS011;5812;48.864;9.190;2022-12-07T01:30:15;9.43;;;9.43;;
11510;SDS011;5812;48.864;9.190;2022-12-07T01:32:41;8.60;;;8.60;;
11510;SDS011;5812;48.864;9.190;2022-12-07T01:35:07;10.13;;;10.13;;
11510;SDS011;5812;48.864;9.190;2022-12-07T01:37:36;10.37;;;10.37;;
11510;SDS011;5812;48.864;9.190;2022-12-07T01:40:02;9.30;;;9.30;;
11510;SDS011;5812;48.864;9.190;2022-12-07T01:42:32;10.70;;;10.70;;
11510;SDS011;5812;48.864;9.190;2022-12-07T01:47:43;9.67;;;9.67;;
11510;SDS011;5812;48.864;9.190;2022-12-07T01:50:16;9.70;;;9.70;;
11510;SDS011;5812;48.864;9.190;2022-12-07T01:52:42;9.00;;;9.00;;
11510;SDS011;5812;48.864;9.190;2022-12-07T01:55:13;9.43;;;9.43;;
11510;SDS011;5812;48.864;9.190;2022-12-07T01:57:41;10.53;;;10.53;;
11510;SDS011;5812;48.864;9.190;2022-12-07T02:00:11;9.53;;;9.53;;
11510;SDS011;5812;48.864;9.190;2022-12-07T02:02:38;8.80;;;8.80;;
11510;SDS011;5812;48.864;9.190;2022-12-07T02:05:09;9.20;;;9.20;;
11510;SDS011;5812;48.864;9.190;2022-12-07T02:07:36;9.43;;;9.43;;
11510;SDS011;5812;48.864;9.190;2022-12-07T02:10:16;8.70;;;8.70;;
11510;SDS011;5812;48.864;9.190;2022-12-07T02:12:46;8.90;;;8.90;;
11510;SDS011;5812;48.864;9.190;2022-12-07T02:15:15;8.27;;;8.27;;
11510;SDS011;5812;48.864;9.190;2022-12-07T02:17:44;8.07;;;8.07;;
11510;SDS011;5812;48.864;9.190;2022-12-07T02:20:34;8.50;;;8.50;;
11510;SDS011;5812;48.864;9.190;2022-12-07T02:23:38;9.73;;;9.73;;
11510;SDS011;5812;48.864;9.190;2022-12-07T02:26:18;8.60;;;8.60;;
11510;SDS011;5812;48.864;9.190;2022-12-07T02:28:58;9.10;;;9.10;;
11510;SDS011;5812;48.864;9.190;2022-12-07T02:31:34;8.90;;;8.90;;
11510;SDS011;5812;48.864;9.190;2022-12-07T02:34:07;8.70;;;8.70;;
11510;SDS011;5812;48.864;9.190;2022-12-07T02:36:39;9.03;;;9.03;;
11510;SDS011;5812;48.864;9.190;2022-12-07T02:39:13;8.37;;;8.37;;
11510;SDS011;5812;48.864;9.190;2022-12-07T02:41:46;9.17;;;9.17;;
11510;SDS011;5812;48.864;9.190;2022-12-07T02:44:17;9.23;;;9.23;;
11510;SDS011;5812;48.864;9.190;2022-12-07T02:46:51;9.43;;;9.43;;
11510;SDS011;5812;48.864;9.190;2022-12-07T02:49:30;8.90;;;8.90;;
11510;SDS011;5812;48.864;9.190;2022-12-07T02:51:56;8.77;;;8.77;;
11510;SDS011;5812;48.864;9.190;2022-12-07T02:54:22;9.10;;;9.10;;
11510;SDS011;5812;48.864;9.190;2022-12-07T02:56:52;8.50;;;8.50;;
11510;SDS011;5812;48.864;9.190;2022-12-07T03:02:19;9.23;;;9.23;;
11510;SDS011;5812;48.864;9.190;2022-12-07T03:05:05;7.63;;;7.63;;
11510;SDS011;5812;48.864;9.190;2022-12-07T03:07:54;8.17;;;8.17;;
11510;SDS011;5812;48.864;9.190;2022-12-07T03:10:47;8.50;;;8.50;;
11510;SDS011;5812;48.864;9.190;2022-12-07T03:18:38;7.83;;;7.83;;
11510;SDS011;5812;48.864;9.190;2022-12-07T03:21:25;8.30;;;8.30;;
11510;SDS011;5812;48.864;9.190;2022-12-07T03:23:56;8.03;;;8.03;;
11510;SDS011;5812;48.864;9.190;2022-12-07T03:26:28;7.67;;;7.67;;
11510;SDS011;5812;48.864;9.190;2022-12-07T03:28:58;8.47;;;8.47;;
11510;SDS011;5812;48.864;9.190;2022-12-07T03:31:35;8.67;;;8.67;;
11510;SDS011;5812;48.864;9.190;2022-12-07T03:34:14;8.17;;;8.17;;
11510;SDS011;5812;48.864;9.190;2022-12-07T03:36:50;8.33;;;8.33;;
11510;SDS011;5812;48.864;9.190;2022-12-07T03:41:52;8.40;;;8.40;;
11510;SDS011;5812;48.864;9.190;2022-12-07T03:44:18;8.27;;;8.27;;
11510;SDS011;5812;48.864;9.190;2022-12-07T03:46:50;8.37;;;8.37;;
11510;SDS011;5812;48.864;9.190;2022-12-07T03:49:30;9.13;;;9.13;;
11510;SDS011;5812;48.864;9.190;2022-12-07T03:57:29;7.13;;;7.13;;
11510;SDS011;5812;48.864;9.190;2022-12-07T03:59:57;8.97;;;8.97;;
11510;SDS011;5812;48.864;9.190;2022-12-07T04:02:23;9.03;;;9.03;;
11510;SDS011;5812;48.864;9.190;2022-12-07T04:04:51;8.97;;;8.97;;
11510;SDS011;5812;48.864;9.190;2022-12-07T04:07:17;8.90;;;8.90;;
11510;SDS011;5812;48.864;9.190;2022-12-07T04:09:43;8.67;;;8.67;;
11510;SDS011;5812;48.864;9.190;2022-12-07T04:12:08;9.53;;;9.53;;
11510;SDS011;5812;48.864;9.190;2022-12-07T04:14:34;10.47;;;10.47;;
11510;SDS011;5812;48.864;9.190;2022-12-07T04:17:00;11.37;;;11.37;;
11510;SDS011;5812;48.864;9.190;2022-12-07T04:19:26;11.33;;;11.33;;
11510;SDS011;5812;48.864;9.190;2022-12-07T04:21:54;10.13;;;10.13;;
11510;SDS011;5812;48.864;9.190;2022-12-07T04:24:21;11.10;;;11.10;;
11510;SDS011;5812;48.864;9.190;2022-12-07T04:26:47;11.13;;;11.13;;
11510;SDS011;5812;48.864;9.190;2022-12-07T04:29:13;12.27;;;12.17;;
11510;SDS011;5812;48.864;9.190;2022-12-07T04:31:39;12.33;;;12.33;;
11510;SDS011;5812;48.864;9.190;2022-12-07T04:34:05;11.47;;;11.47;;
11510;SDS011;5812;48.864;9.190;2022-12-07T04:36:31;11.70;;;11.70;;
11510;SDS011;5812;48.864;9.190;2022-12-07T04:38:57;11.10;;;11.10;;
11510;SDS011;5812;48.864;9.190;2022-12-07T04:41:23;11.50;;;11.50;;
11510;SDS011;5812;48.864;9.190;2022-12-07T04:44:01;10.40;;;10.40;;
11510;SDS011;5812;48.864;9.190;2022-12-07T04:46:30;9.90;;;9.90;;
11510;SDS011;5812;48.864;9.190;2022-12-07T04:48:56;9.50;;;9.50;;
11510;SDS011;5812;48.864;9.190;2022-12-07T04:51:23;9.50;;;9.50;;
11510;SDS011;5812;48.864;9.190;2022-12-07T04:53:50;9.83;;;9.83;;
11510;SDS011;5812;48.864;9.190;2022-12-07T04:56:17;9.13;;;9.13;;
11510;SDS011;5812;48.864;9.190;2022-12-07T04:58:44;9.60;;;9.60;;
11510;SDS011;5812;48.864;9.190;2022-12-07T05:01:11;9.07;;;9.07;;
11510;SDS011;5812;48.864;9.190;2022-12-07T05:03:37;8.83;;;8.83;;
11510;SDS011;5812;48.864;9.190;2022-12-07T05:06:04;9.20;;;9.20;;
11510;SDS011;5812;48.864;9.190;2022-12-07T05:08:31;9.23;;;9.23;;
11510;SDS011;5812;48.864;9.190;2022-12-07T05:10:58;9.57;;;9.57;;
11510;SDS011;5812;48.864;9.190;2022-12-07T05:13:24;9.13;;;9.13;;
11510;SDS011;5812;48.864;9.190;2022-12-07T05:15:50;9.97;;;9.97;;
11510;SDS011;5812;48.864;9.190;2022-12-07T05:18:16;9.27;;;9.27;;
11510;SDS011;5812;48.864;9.190;2022-12-07T05:20:42;8.77;;;8.77;;
11510;SDS011;5812;48.864;9.190;2022-12-07T05:23:08;9.97;;;9.97;;
11510;SDS011;5812;48.864;9.190;2022-12-07T05:25:34;9.80;;;9.80;;
11510;SDS011;5812;48.864;9.190;2022-12-07T05:27:59;9.47;;;9.47;;
11510;SDS011;5812;48.864;9.190;2022-12-07T05:30:25;9.20;;;9.20;;
11510;SDS011;5812;48.864;9.190;2022-12-07T05:32:51;9.37;;;9.37;;
11510;SDS011;5812;48.864;9.190;2022-12-07T05:35:17;9.60;;;9.60;;
11510;SDS011;5812;48.864;9.190;2022-12-07T05:37:43;9.63;;;9.63;;
11510;SDS011;5812;48.864;9.190;2022-12-07T05:40:10;10.30;;;10.30;;
11510;SDS011;5812;48.864;9.190;2022-12-07T05:42:37;9.67;;;9.67;;
11510;SDS011;5812;48.864;9.190;2022-12-07T05:45:04;10.30;;;10.30;;
11510;SDS011;5812;48.864;9.190;2022-12-07T05:47:30;9.73;;;9.73;;
11510;SDS011;5812;48.864;9.190;2022-12-07T05:49:56;8.60;;;8.60;;
11510;SDS011;5812;48.864;9.190;2022-12-07T05:52:21;10.67;;;10.67;;
11510;SDS011;5812;48.864;9.190;2022-12-07T05:54:47;9.87;;;9.87;;
11510;SDS011;5812;48.864;9.190;2022-12-07T05:57:12;10.23;;;10.23;;
11510;SDS011;5812;48.864;9.190;2022-12-07T05:59:38;9.63;;;9.63;;
11510;SDS011;5812;48.864;9.190;2022-12-07T06:02:05;10.00;;;10.00;;
11510;SDS011;5812;48.864;9.190;2022-12-07T06:04:38;9.93;;;9.93;;
11510;SDS011;5812;48.864;9.190;2022-12-07T06:07:07;9.83;;;9.83;;
11510;SDS011;5812;48.864;9.190;2022-12-07T06:09:33;9.43;;;9.43;;
11510;SDS011;5812;48.864;9.190;2022-12-07T06:11:59;8.60;;;8.60;;
11510;SDS011;5812;48.864;9.190;2022-12-07T06:14:43;10.03;;;10.03;;
11510;SDS011;5812;48.864;9.190;2022-12-07T06:17:09;9.50;;;9.50;;
11510;SDS011;5812;48.864;9.190;2022-12-07T06:19:35;9.20;;;9.20;;
11510;SDS011;5812;48.864;9.190;2022-12-07T06:22:01;9.97;;;9.97;;
11510;SDS011;5812;48.864;9.190;2022-12-07T06:24:29;9.03;;;9.03;;
11510;SDS011;5812;48.864;9.190;2022-12-07T06:26:55;9.73;;;9.73;;
11510;SDS011;5812;48.864;9.190;2022-12-07T06:29:21;8.77;;;8.77;;
11510;SDS011;5812;48.864;9.190;2022-12-07T06:31:47;9.23;;;9.23;;
11510;SDS011;5812;48.864;9.190;2022-12-07T06:34:14;8.60;;;8.60;;
11510;SDS011;5812;48.864;9.190;2022-12-07T06:36:44;8.87;;;8.87;;
11510;SDS011;5812;48.864;9.190;2022-12-07T06:39:10;8.70;;;8.70;;
11510;SDS011;5812;48.864;9.190;2022-12-07T06:41:37;7.67;;;7.67;;
11510;SDS011;5812;48.864;9.190;2022-12-07T06:44:03;7.97;;;7.97;;
11510;SDS011;5812;48.864;9.190;2022-12-07T06:46:30;8.37;;;8.37;;
11510;SDS011;5812;48.864;9.190;2022-12-07T06:48:55;7.13;;;7.13;;
11510;SDS011;5812;48.864;9.190;2022-12-07T06:51:21;7.77;;;7.77;;
11510;SDS011;5812;48.864;9.190;2022-12-07T06:53:47;7.40;;;7.40;;
11510;SDS011;5812;48.864;9.190;2022-12-07T06:56:13;7.93;;;7.93;;
11510;SDS011;5812;48.864;9.190;2022-12-07T06:58:38;7.47;;;7.47;;
11510;SDS011;5812;48.864;9.190;2022-12-07T07:01:11;6.90;;;6.90;;
11510;SDS011;5812;48.864;9.190;2022-12-07T07:03:38;7.10;;;7.10;;
11510;SDS011;5812;48.864;9.190;2022-12-07T07:06:05;6.90;;;6.90;;
11510;SDS011;5812;48.864;9.190;2022-12-07T07:08:32;6.93;;;6.93;;
11510;SDS011;5812;48.864;9.190;2022-12-07T07:10:58;6.27;;;6.27;;
11510;SDS011;5812;48.864;9.190;2022-12-07T07:13:24;6.50;;;6.50;;
11510;SDS011;5812;48.864;9.190;2022-12-07T07:15:50;6.33;;;6.33;;
11510;SDS011;5812;48.864;9.190;2022-12-07T07:18:16;6.63;;;6.63;;
11510;SDS011;5812;48.864;9.190;2022-12-07T07:20:41;6.20;;;6.20;;
11510;SDS011;5812;48.864;9.190;2022-12-07T07:23:07;5.77;;;5.77;;
11510;SDS011;5812;48.864;9.190;2022-12-07T07:25:32;5.30;;;5.30;;
11510;SDS011;5812;48.864;9.190;2022-12-07T07:27:58;5.70;;;5.70;;
11510;SDS011;5812;48.864;9.190;2022-12-07T07:30:24;6.17;;;6.17;;
11510;SDS011;5812;48.864;9.190;2022-12-07T07:32:50;5.40;;;5.40;;
11510;SDS011;5812;48.864;9.190;2022-12-07T07:35:16;5.43;;;5.43;;
11510;SDS011;5812;48.864;9.190;2022-12-07T07:37:41;5.00;;;5.00;;
11510;SDS011;5812;48.864;9.190;2022-12-07T07:40:08;4.90;;;4.90;;
11510;SDS011;5812;48.864;9.190;2022-12-07T07:42:34;5.47;;;5.47;;
11510;SDS011;5812;48.864;9.190;2022-12-07T07:45:00;5.27;;;5.27;;
11510;SDS011;5812;48.864;9.190;2022-12-07T07:47:26;5.33;;;5.33;;
11510;SDS011;5812;48.864;9.190;2022-12-07T07:49:51;5.33;;;5.33;;
11510;SDS011;5812;48.864;9.190;2022-12-07T07:52:17;5.10;;;5.10;;
11510;SDS011;5812;48.864;9.190;2022-12-07T07:54:42;5.20;;;5.20;;
11510;SDS011;5812;48.864;9.190;2022-12-07T07:57:08;5.23;;;5.23;;
11510;SDS011;5812;48.864;9.190;2022-12-07T07:59:33;5.20;;;5.20;;
11510;SDS011;5812;48.864;9.190;2022-12-07T08:01:59;5.43;;;5.43;;
11510;SDS011;5812;48.864;9.190;2022-12-07T08:04:24;4.77;;;4.77;;
11510;SDS011;5812;48.864;9.190;2022-12-07T08:06:50;5.37;;;5.37;;
11510;SDS011;5812;48.864;9.190;2022-12-07T08:09:16;4.40;;;4.40;;
11510;SDS011;5812;48.864;9.190;2022-12-07T08:11:42;4.50;;;4.50;;
11510;SDS011;5812;48.864;9.190;2022-12-07T08:14:07;4.40;;;4.40;;
11510;SDS011;5812;48.864;9.190;2022-12-07T08:16:34;4.67;;;4.67;;
11510;SDS011;5812;48.864;9.190;2022-12-07T08:19:00;5.30;;;5.30;;
11510;SDS011;5812;48.864;9.190;2022-12-07T08:21:25;4.37;;;4.37;;
11510;SDS011;5812;48.864;9.190;2022-12-07T08:23:51;4.67;;;4.67;;
11510;SDS011;5812;48.864;9.190;2022-12-07T08:26:16;4.70;;;4.70;;
11510;SDS011;5812;48.864;9.190;2022-12-07T08:28:42;4.37;;;4.37;;
11510;SDS011;5812;48.864;9.190;2022-12-07T08:31:12;5.10;;;5.10;;
11510;SDS011;5812;48.864;9.190;2022-12-07T08:33:39;4.70;;;4.70;;
11510;SDS011;5812;48.864;9.190;2022-12-07T08:36:10;4.67;;;4.67;;
11510;SDS011;5812;48.864;9.190;2022-12-07T08:38:37;4.17;;;4.17;;
11510;SDS011;5812;48.864;9.190;2022-12-07T08:41:03;4.27;;;4.27;;
11510;SDS011;5812;48.864;9.190;2022-12-07T08:43:29;4.00;;;4.00;;
11510;SDS011;5812;48.864;9.190;2022-12-07T08:46:03;4.27;;;4.27;;
11510;SDS011;5812;48.864;9.190;2022-12-07T08:48:33;5.07;;;5.07;;
11510;SDS011;5812;48.864;9.190;2022-12-07T08:51:01;4.30;;;4.30;;
11510;SDS011;5812;48.864;9.190;2022-12-07T08:53:28;4.27;;;4.27;;
11510;SDS011;5812;48.864;9.190;2022-12-07T08:55:54;4.40;;;4.40;;
11510;SDS011;5812;48.864;9.190;2022-12-07T08:58:22;4.77;;;4.77;;
11510;SDS011;5812;48.864;9.190;2022-12-07T09:00:47;3.93;;;3.93;;
11510;SDS011;5812;48.864;9.190;2022-12-07T09:03:13;3.97;;;3.97;;
11510;SDS011;5812;48.864;9.190;2022-12-07T09:05:39;4.17;;;4.17;;
11510;SDS011;5812;48.864;9.190;2022-12-07T09:08:04;4.40;;;4.40;;
11510;SDS011;5812;48.864;9.190;2022-12-07T09:10:31;5.43;;;5.43;;
11510;SDS011;5812;48.864;9.190;2022-12-07T09:12:57;5.37;;;5.37;;
11510;SDS011;5812;48.864;9.190;2022-12-07T09:15:26;4.57;;;4.57;;
11510;SDS011;5812;48.864;9.190;2022-12-07T09:17:53;4.50;;;4.50;;
11510;SDS011;5812;48.864;9.190;2022-12-07T09:20:18;4.37;;;4.37;;
11510;SDS011;5812;48.864;9.190;2022-12-07T09:22:44;4.47;;;4.47;;
11510;SDS011;5812;48.864;9.190;2022-12-07T09:25:10;4.00;;;4.00;;
11510;SDS011;5812;48.864;9.190;2022-12-07T09:27:38;3.60;;;3.60;;
11510;SDS011;5812;48.864;9.190;2022-12-07T09:30:04;4.27;;;4.27;;
11510;SDS011;5812;48.864;9.190;2022-12-07T09:32:30;3.83;;;3.83;;
11510;SDS011;5812;48.864;9.190;2022-12-07T09:34:56;3.70;;;3.70;;
11510;SDS011;5812;48.864;9.190;2022-12-07T09:37:22;3.90;;;3.90;;
11510;SDS011;5812;48.864;9.190;2022-12-07T09:39:48;3.67;;;3.67;;
11510;SDS011;5812;48.864;9.190;2022-12-07T09:44:59;3.70;;;3.70;;
11510;SDS011;5812;48.864;9.190;2022-12-07T09:47:26;3.70;;;3.70;;
11510;SDS011;5812;48.864;9.190;2022-12-07T09:49:54;2.80;;;2.80;;
11510;SDS011;5812;48.864;9.190;2022-12-07T09:52:26;3.40;;;3.40;;
11510;SDS011;5812;48.864;9.190;2022-12-07T09:54:53;2.80;;;2.80;;
11510;SDS011;5812;48.864;9.190;2022-12-07T09:57:28;3.33;;;3.33;;
11510;SDS011;5812;48.864;9.190;2022-12-07T09:59:56;3.70;;;3.70;;
11510;SDS011;5812;48.864;9.190;2022-12-07T10:05:00;3.10;;;3.10;;
11510;SDS011;5812;48.864;9.190;2022-12-07T10:07:26;3.27;;;3.27;;
11510;SDS011;5812;48.864;9.190;2022-12-07T10:09:52;3.60;;;3.60;;
11510;SDS011;5812;48.864;9.190;2022-12-07T10:12:17;3.63;;;3.63;;
11510;SDS011;5812;48.864;9.190;2022-12-07T10:14:57;4.13;;;4.13;;
11510;SDS011;5812;48.864;9.190;2022-12-07T10:17:40;3.73;;;3.73;;
11510;SDS011;5812;48.864;9.190;2022-12-07T10:20:20;3.93;;;3.93;;
11510;SDS011;5812;48.864;9.190;2022-12-07T10:23:00;4.23;;;4.23;;
11510;SDS011;5812;48.864;9.190;2022-12-07T10:25:33;3.17;;;3.17;;
11510;SDS011;5812;48.864;9.190;2022-12-07T10:30:32;3.30;;;3.30;;
11510;SDS011;5812;48.864;9.190;2022-12-07T10:35:56;3.37;;;3.37;;
11510;SDS011;5812;48.864;9.190;2022-12-07T10:38:22;3.30;;;3.30;;
11510;SDS011;5812;48.864;9.190;2022-12-07T10:41:07;3.13;;;3.13;;
11510;SDS011;5812;48.864;9.190;2022-12-07T10:43:33;3.17;;;3.17;;
11510;SDS011;5812;48.864;9.190;2022-12-07T10:52:01;2.50;;;2.50;;
11510;SDS011;5812;48.864;9.190;2022-12-07T10:54:32;3.03;;;3.03;;
11510;SDS011;5812;48.864;9.190;2022-12-07T11:05:52;3.17;;;3.17;;
11510;SDS011;5812;48.864;9.190;2022-12-07T11:08:35;2.97;;;2.97;;
11510;SDS011;5812;48.864;9.190;2022-12-07T11:13:52;3.13;;;3.13;;
11510;SDS011;5812;48.864;9.190;2022-12-07T11:19:24;4.27;;;4.27;;
11510;SDS011;5812;48.864;9.190;2022-12-07T11:22:04;3.30;;;3.30;;
11510;SDS011;5812;48.864;9.190;2022-12-07T11:24:59;3.00;;;3.00;;
11510;SDS011;5812;48.864;9.190;2022-12-07T11:27:34;3.67;;;3.67;;
11510;SDS011;5812;48.864;9.190;2022-12-07T11:32:49;3.90;;;3.90;;
11510;SDS011;5812;48.864;9.190;2022-12-07T11:38:18;5.67;;;5.67;;
11510;SDS011;5812;48.864;9.190;2022-12-07T11:40:49;5.13;;;5.13;;
11510;SDS011;5812;48.864;9.190;2022-12-07T11:43:21;4.83;;;4.83;;
11510;SDS011;5812;48.864;9.190;2022-12-07T11:45:54;5.53;;;5.53;;
11510;SDS011;5812;48.864;9.190;2022-12-07T11:48:30;5.17;;;5.17;;
11510;SDS011;5812;48.864;9.190;2022-12-07T11:51:00;6.10;;;6.10;;
11510;SDS011;5812;48.864;9.190;2022-12-07T11:53:31;5.70;;;5.70;;
11510;SDS011;5812;48.864;9.190;2022-12-07T11:56:09;5.60;;;5.60;;
11510;SDS011;5812;48.864;9.190;2022-12-07T11:58:48;5.40;;;5.40;;
11510;SDS011;5812;48.864;9.190;2022-12-07T12:04:05;5.60;;;5.60;;
11510;SDS011;5812;48.864;9.190;2022-12-07T12:06:44;5.77;;;5.77;;
11510;SDS011;5812;48.864;9.190;2022-12-07T12:09:14;4.80;;;4.80;;
11510;SDS011;5812;48.864;9.190;2022-12-07T12:11:50;5.27;;;5.27;;
11510;SDS011;5812;48.864;9.190;2022-12-07T12:22:55;5.53;;;5.53;;
11510;SDS011;5812;48.864;9.190;2022-12-07T12:25:29;5.13;;;5.13;;
11510;SDS011;5812;48.864;9.190;2022-12-07T12:28:02;5.70;;;5.70;;
11510;SDS011;5812;48.864;9.190;2022-12-07T12:33:05;5.30;;;5.30;;
11510;SDS011;5812;48.864;9.190;2022-12-07T12:36:16;5.13;;;5.13;;
11510;SDS011;5812;48.864;9.190;2022-12-07T12:44:38;5.57;;;5.57;;
11510;SDS011;5812;48.864;9.190;2022-12-07T12:46:59;6.60;;;6.60;;
11510;SDS011;5812;48.864;9.190;2022-12-07T12:54:29;6.00;;;6.00;;
11510;SDS011;5812;48.864;9.190;2022-12-07T12:57:00;5.37;;;5.37;;
11510;SDS011;5812;48.864;9.190;2022-12-07T12:59:34;6.00;;;6.00;;
11510;SDS011;5812;48.864;9.190;2022-12-07T13:04:52;6.30;;;6.30;;
11510;SDS011;5812;48.864;9.190;2022-12-07T13:15:46;6.83;;;6.83;;
11510;SDS011;5812;48.864;9.190;2022-12-07T13:26:12;7.07;;;7.07;;
11510;SDS011;5812;48.864;9.190;2022-12-07T13:28:48;7.10;;;7.10;;
11510;SDS011;5812;48.864;9.190;2022-12-07T13:31:37;7.17;;;7.17;;
11510;SDS011;5812;48.864;9.190;2022-12-07T13:37:27;7.40;;;7.40;;
11510;SDS011;5812;48.864;9.190;2022-12-07T13:39:58;8.37;;;8.37;;
11510;SDS011;5812;48.864;9.190;2022-12-07T13:44:56;8.13;;;8.13;;
11510;SDS011;5812;48.864;9.190;2022-12-07T13:49:56;8.03;;;8.03;;
11510;SDS011;5812;48.864;9.190;2022-12-07T13:52:24;7.90;;;7.90;;
11510;SDS011;5812;48.864;9.190;2022-12-07T13:57:31;8.27;;;8.27;;
11510;SDS011;5812;48.864;9.190;2022-12-07T13:59:59;8.00;;;8.00;;
11510;SDS011;5812;48.864;9.190;2022-12-07T14:02:31;7.70;;;7.70;;
11510;SDS011;5812;48.864;9.190;2022-12-07T14:10:24;7.30;;;7.30;;
11510;SDS011;5812;48.864;9.190;2022-12-07T14:13:01;7.53;;;7.53;;
11510;SDS011;5812;48.864;9.190;2022-12-07T14:15:29;7.27;;;7.27;;
11510;SDS011;5812;48.864;9.190;2022-12-07T14:17:59;7.83;;;7.83;;
11510;SDS011;5812;48.864;9.190;2022-12-07T14:22:58;8.00;;;8.00;;
11510;SDS011;5812;48.864;9.190;2022-12-07T14:25:33;8.10;;;8.10;;
11510;SDS011;5812;48.864;9.190;2022-12-07T14:30:55;8.27;;;8.27;;
11510;SDS011;5812;48.864;9.190;2022-12-07T14:33:21;8.50;;;8.50;;
11510;SDS011;5812;48.864;9.190;2022-12-07T14:35:48;8.67;;;8.67;;
11510;SDS011;5812;48.864;9.190;2022-12-07T14:38:14;7.77;;;7.77;;
11510;SDS011;5812;48.864;9.190;2022-12-07T14:40:40;8.80;;;8.80;;
11510;SDS011;5812;48.864;9.190;2022-12-07T14:43:08;9.23;;;9.23;;
11510;SDS011;5812;48.864;9.190;2022-12-07T14:45:37;9.03;;;9.03;;
11510;SDS011;5812;48.864;9.190;2022-12-07T14:48:04;7.90;;;7.90;;
11510;SDS011;5812;48.864;9.190;2022-12-07T14:50:30;8.33;;;8.33;;
11510;SDS011;5812;48.864;9.190;2022-12-07T14:53:02;10.13;;;10.13;;
11510;SDS011;5812;48.864;9.190;2022-12-07T14:55:36;9.37;;;9.37;;
11510;SDS011;5812;48.864;9.190;2022-12-07T14:58:01;8.93;;;8.93;;
11510;SDS011;5812;48.864;9.190;2022-12-07T15:00:27;7.93;;;7.93;;
11510;SDS011;5812;48.864;9.190;2022-12-07T15:02:53;7.87;;;7.87;;
11510;SDS011;5812;48.864;9.190;2022-12-07T15:05:20;8.27;;;8.27;;
11510;SDS011;5812;48.864;9.190;2022-12-07T15:07:46;7.33;;;7.33;;
11510;SDS011;5812;48.864;9.190;2022-12-07T15:10:20;7.47;;;7.47;;
11510;SDS011;5812;48.864;9.190;2022-12-07T15:12:48;7.90;;;7.90;;
11510;SDS011;5812;48.864;9.190;2022-12-07T15:15:14;8.00;;;8.00;;
11510;SDS011;5812;48.864;9.190;2022-12-07T15:17:40;7.60;;;7.60;;
11510;SDS011;5812;48.864;9.190;2022-12-07T15:20:07;9.17;;;9.17;;
11510;SDS011;5812;48.864;9.190;2022-12-07T15:22:36;8.47;;;8.47;;
11510;SDS011;5812;48.864;9.190;2022-12-07T15:25:02;8.67;;;8.67;;
11510;SDS011;5812;48.864;9.190;2022-12-07T15:27:29;8.60;;;8.60;;
11510;SDS011;5812;48.864;9.190;2022-12-07T15:29:55;9.27;;;9.27;;
11510;SDS011;5812;48.864;9.190;2022-12-07T15:32:21;9.83;;;9.83;;
11510;SDS011;5812;48.864;9.190;2022-12-07T15:34:47;8.83;;;8.83;;
11510;SDS011;5812;48.864;9.190;2022-12-07T15:37:14;9.37;;;9.37;;
11510;SDS011;5812;48.864;9.190;2022-12-07T15:39:40;10.23;;;10.23;;
11510;SDS011;5812;48.864;9.190;2022-12-07T15:42:06;9.60;;;9.60;;
11510;SDS011;5812;48.864;9.190;2022-12-07T15:44:31;10.37;;;10.37;;
11510;SDS011;5812;48.864;9.190;2022-12-07T15:47:15;9.87;;;9.87;;
11510;SDS011;5812;48.864;9.190;2022-12-07T15:49:41;8.93;;;8.93;;
11510;SDS011;5812;48.864;9.190;2022-12-07T15:52:06;9.07;;;9.07;;
11510;SDS011;5812;48.864;9.190;2022-12-07T15:54:32;8.97;;;8.97;;
11510;SDS011;5812;48.864;9.190;2022-12-07T15:56:58;8.73;;;8.73;;
11510;SDS011;5812;48.864;9.190;2022-12-07T15:59:23;9.13;;;9.13;;
11510;SDS011;5812;48.864;9.190;2022-12-07T16:01:51;9.60;;;9.50;;
11510;SDS011;5812;48.864;9.190;2022-12-07T16:04:17;10.43;;;10.43;;
11510;SDS011;5812;48.864;9.190;2022-12-07T16:06:43;9.10;;;9.10;;
11510;SDS011;5812;48.864;9.190;2022-12-07T16:09:09;9.47;;;9.47;;
11510;SDS011;5812;48.864;9.190;2022-12-07T16:11:35;9.10;;;9.10;;
11510;SDS011;5812;48.864;9.190;2022-12-07T16:14:00;9.53;;;9.53;;
11510;SDS011;5812;48.864;9.190;2022-12-07T16:16:27;10.13;;;10.13;;
11510;SDS011;5812;48.864;9.190;2022-12-07T16:18:52;10.80;;;10.80;;
11510;SDS011;5812;48.864;9.190;2022-12-07T16:21:19;10.97;;;10.97;;
11510;SDS011;5812;48.864;9.190;2022-12-07T16:23:44;11.20;;;11.20;;
11510;SDS011;5812;48.864;9.190;2022-12-07T16:26:12;10.53;;;10.53;;
11510;SDS011;5812;48.864;9.190;2022-12-07T16:28:42;9.37;;;9.37;;
11510;SDS011;5812;48.864;9.190;2022-12-07T16:31:12;10.00;;;10.00;;
11510;SDS011;5812;48.864;9.190;2022-12-07T16:33:40;10.40;;;10.40;;
11510;SDS011;5812;48.864;9.190;2022-12-07T16:36:07;9.93;;;9.93;;
11510;SDS011;5812;48.864;9.190;2022-12-07T16:38:34;10.47;;;10.47;;
11510;SDS011;5812;48.864;9.190;2022-12-07T16:41:00;10.37;;;10.37;;
11510;SDS011;5812;48.864;9.190;2022-12-07T16:43:26;9.67;;;9.67;;
11510;SDS011;5812;48.864;9.190;2022-12-07T16:45:51;9.30;;;9.30;;
11510;SDS011;5812;48.864;9.190;2022-12-07T16:48:17;10.17;;;10.17;;
11510;SDS011;5812;48.864;9.190;2022-12-07T16:50:43;8.77;;;8.77;;
11510;SDS011;5812;48.864;9.190;2022-12-07T16:53:09;9.43;;;9.43;;
11510;SDS011;5812;48.864;9.190;2022-12-07T16:55:39;10.37;;;10.37;;
11510;SDS011;5812;48.864;9.190;2022-12-07T16:58:06;8.60;;;8.60;;
11510;SDS011;5812;48.864;9.190;2022-12-07T17:00:32;9.90;;;9.90;;
11510;SDS011;5812;48.864;9.190;2022-12-07T17:02:58;9.40;;;9.40;;
11510;SDS011;5812;48.864;9.190;2022-12-07T17:05:24;10.03;;;10.03;;
11510;SDS011;5812;48.864;9.190;2022-12-07T17:07:51;9.40;;;9.40;;
11510;SDS011;5812;48.864;9.190;2022-12-07T17:10:17;9.47;;;9.47;;